Time;durP1;ratioP1;P1;durP2;ratioP2;P2;SDS_P1;SDS_P2;PMS_P1;PMS_P2;Temp;Humidity;BMP_temperature;BMP_pressure;BME280_temperature;BME280_humidity;BME280_pressure;Samples;Min_cycle;Max_cycle;Signal;HPM_P1;HPM_P2
2022/05/27 00:00:44;;;;;;;2.10;2.00;;;;;;;;;;5003092;28;20199;-74
2022/05/27 00:03:12;;;;;;;2.97;2.30;;;;;;;;;;4988567;28;20185;-74
2022/05/27 00:05:38;;;;;;;5.83;2.20;;;;;;;;;;4991021;28;20228;-75
2022/05/27 00:08:03;;;;;;;3.93;2.70;;;;;;;;;;4994371;28;20177;-75
2022/05/27 00:10:28;;;;;;;3.33;2.17;;;;;;;;;;4986584;28;20184;-75
2022/05/27 00:12:54;;;;;;;4.23;2.43;;;;;;;;;;4986361;28;20176;-74
2022/05/27 00:15:19;;;;;;;3.17;2.40;;;;;;;;;;5003632;28;20240;-74
2022/05/27 00:17:45;;;;;;;3.40;2.37;;;;;;;;;;4986052;28;20189;-75
2022/05/27 00:20:10;;;;;;;3.17;2.40;;;;;;;;;;4990952;28;20180;-75
2022/05/27 00:22:35;;;;;;;4.33;2.13;;;;;;;;;;4987758;28;20196;-74
2022/05/27 00:25:02;;;;;;;2.57;2.30;;;;;;;;;;5007604;28;20181;-75
2022/05/27 00:27:28;;;;;;;2.83;2.20;;;;;;;;;;5023967;28;20249;-75
2022/05/27 00:29:53;;;;;;;2.63;2.20;;;;;;;;;;5001427;28;20183;-75
2022/05/27 00:32:18;;;;;;;4.53;2.33;;;;;;;;;;5004325;28;20180;-75
2022/05/27 00:34:43;;;;;;;3.73;2.03;;;;;;;;;;5030948;28;20215;-75
2022/05/27 00:37:09;;;;;;;3.10;2.80;;;;;;;;;;5017359;28;20395;-75
2022/05/27 00:39:37;;;;;;;2.20;2.00;;;;;;;;;;5012035;28;20179;-75
2022/05/27 00:42:03;;;;;;;5.27;2.20;;;;;;;;;;5012875;28;20173;-75
2022/05/27 00:44:28;;;;;;;2.40;2.20;;;;;;;;;;5009599;28;20176;-74
2022/05/27 00:46:56;;;;;;;2.93;2.63;;;;;;;;;;5018649;28;20191;-75
2022/05/27 00:49:23;;;;;;;5.07;2.50;;;;;;;;;;5028548;28;20186;-75
2022/05/27 00:51:51;;;;;;;4.00;2.43;;;;;;;;;;5011771;28;21160;-75
2022/05/27 00:54:17;;;;;;;2.20;1.97;;;;;;;;;;5005908;28;20201;-75
2022/05/27 00:56:45;;;;;;;3.97;2.57;;;;;;;;;;5028566;28;20201;-75
2022/05/27 00:59:19;;;;;;;2.47;2.27;;;;;;;;;;5008591;28;20188;-75
2022/05/27 01:01:44;;;;;;;3.40;2.10;;;;;;;;;;5006325;28;20198;-75
2022/05/27 01:04:10;;;;;;;3.40;2.33;;;;;;;;;;5022754;28;20272;-75
2022/05/27 01:06:35;;;;;;;2.93;2.30;;;;;;;;;;5005908;28;20184;-74
2022/05/27 01:09:01;;;;;;;2.50;2.30;;;;;;;;;;5006691;28;20186;-75
2022/05/27 01:11:32;;;;;;;3.57;2.13;;;;;;;;;;5027096;28;20183;-74
2022/05/27 01:14:16;;;;;;;2.43;2.10;;;;;;;;;;5015693;28;20215;-75
2022/05/27 01:16:46;;;;;;;2.50;2.00;;;;;;;;;;5007241;28;20172;-74
2022/05/27 01:22:04;;;;;;;3.90;2.10;;;;;;;;;;5028954;28;20221;-75
2022/05/27 01:24:32;;;;;;;2.92;1.85;;;;;;;;;;5021254;28;20202;-75
2022/05/27 01:27:16;;;;;;;2.77;1.80;;;;;;;;;;5020080;28;20255;-74
2022/05/27 01:30:00;;;;;;;3.03;2.17;;;;;;;;;;5016089;28;20266;-74
2022/05/27 01:32:37;;;;;;;2.97;2.00;;;;;;;;;;5019995;28;20276;-75
2022/05/27 01:35:02;;;;;;;3.93;2.17;;;;;;;;;;5011546;28;20211;-74
2022/05/27 01:37:33;;;;;;;2.23;2.10;;;;;;;;;;5002815;28;20189;-74
2022/05/27 01:40:06;;;;;;;2.00;1.90;;;;;;;;;;5004916;28;20188;-75
2022/05/27 01:42:35;;;;;;;2.87;2.50;;;;;;;;;;5021125;28;20227;-74
2022/05/27 01:45:04;;;;;;;3.87;2.73;;;;;;;;;;5030167;28;20180;-75
2022/05/27 01:47:42;;;;;;;3.67;2.30;;;;;;;;;;5020996;28;20181;-74
2022/05/27 01:50:14;;;;;;;3.50;2.77;;;;;;;;;;5008818;28;20213;-74
2022/05/27 01:52:53;;;;;;;3.73;2.47;;;;;;;;;;5015306;28;20206;-75
2022/05/27 01:55:24;;;;;;;2.60;2.40;;;;;;;;;;5023049;28;20257;-75
2022/05/27 01:58:10;;;;;;;4.23;2.40;;;;;;;;;;5008208;28;20175;-74
2022/05/27 02:00:37;;;;;;;2.50;2.30;;;;;;;;;;4999983;28;20213;-74
2022/05/27 02:03:06;;;;;;;3.40;2.63;;;;;;;;;;4998623;28;20204;-75
2022/05/27 02:05:50;;;;;;;3.40;2.70;;;;;;;;;;5005393;28;20190;-75
2022/05/27 02:08:18;;;;;;;4.13;2.90;;;;;;;;;;5015237;28;20214;-75
2022/05/27 02:11:02;;;;;;;3.20;2.77;;;;;;;;;;5015879;28;20190;-74
2022/05/27 02:13:35;;;;;;;6.93;2.67;;;;;;;;;;5015258;28;20192;-75
2022/05/27 02:16:02;;;;;;;7.00;4.03;;;;;;;;;;5021543;28;20211;-75
2022/05/27 02:18:30;;;;;;;4.93;3.30;;;;;;;;;;5026829;28;20232;-74
2022/05/27 02:21:02;;;;;;;4.03;3.23;;;;;;;;;;5017120;28;20178;-75
2022/05/27 02:23:30;;;;;;;5.23;3.27;;;;;;;;;;5007296;28;20182;-75
2022/05/27 02:25:57;;;;;;;3.63;2.87;;;;;;;;;;5013237;28;20279;-74
2022/05/27 02:28:24;;;;;;;5.13;3.20;;;;;;;;;;5009002;28;20196;-74
2022/05/27 02:30:52;;;;;;;3.20;2.87;;;;;;;;;;5015062;28;20197;-75
2022/05/27 02:36:25;;;;;;;4.90;3.57;;;;;;;;;;5032905;28;20204;-75
2022/05/27 02:38:50;;;;;;;4.90;3.70;;;;;;;;;;5024574;28;20337;-75
2022/05/27 02:41:20;;;;;;;3.33;3.03;;;;;;;;;;5011794;28;20265;-75
2022/05/27 02:43:55;;;;;;;5.47;3.57;;;;;;;;;;5013798;28;20189;-74
2022/05/27 02:46:29;;;;;;;3.37;3.07;;;;;;;;;;5009347;28;20182;-74
2022/05/27 02:49:06;;;;;;;4.17;3.33;;;;;;;;;;5011512;28;20178;-75
2022/05/27 02:51:38;;;;;;;3.83;3.27;;;;;;;;;;5016332;28;20179;-75
2022/05/27 02:54:15;;;;;;;4.90;3.13;;;;;;;;;;5002019;28;20216;-74
2022/05/27 02:56:49;;;;;;;4.53;3.37;;;;;;;;;;5019106;28;20185;-74
2022/05/27 02:59:16;;;;;;;5.27;3.80;;;;;;;;;;5008980;28;20240;-74
2022/05/27 03:01:41;;;;;;;5.40;3.10;;;;;;;;;;5008880;28;20214;-74
2022/05/27 03:04:07;;;;;;;4.87;3.67;;;;;;;;;;5009999;28;20182;-75
2022/05/27 03:06:46;;;;;;;3.80;3.40;;;;;;;;;;5032871;28;20193;-74
2022/05/27 03:09:14;;;;;;;4.10;3.70;;;;;;;;;;5013080;28;20222;-74
2022/05/27 03:11:43;;;;;;;4.27;3.87;;;;;;;;;;5008532;28;20202;-75
2022/05/27 03:14:27;;;;;;;5.33;3.53;;;;;;;;;;5007140;28;20213;-75
2022/05/27 03:16:55;;;;;;;5.13;3.50;;;;;;;;;;5032925;28;20273;-74
2022/05/27 03:19:20;;;;;;;4.37;3.97;;;;;;;;;;5008255;28;20174;-74
2022/05/27 03:21:51;;;;;;;5.10;3.80;;;;;;;;;;5029539;28;20245;-74
2022/05/27 03:24:22;;;;;;;6.10;4.17;;;;;;;;;;5027180;28;20205;-74
2022/05/27 03:26:50;;;;;;;5.83;3.87;;;;;;;;;;4995048;28;20301;-74
2022/05/27 03:29:19;;;;;;;5.97;4.30;;;;;;;;;;4994595;28;20181;-74
2022/05/27 03:31:48;;;;;;;5.17;3.87;;;;;;;;;;5008923;28;20256;-75
2022/05/27 03:34:40;;;;;;;7.27;4.23;;;;;;;;;;4986317;28;20288;-75
2022/05/27 03:37:11;;;;;;;5.70;4.00;;;;;;;;;;4992660;28;20218;-75
2022/05/27 03:39:42;;;;;;;4.30;3.60;;;;;;;;;;5008807;28;20200;-75
2022/05/27 03:42:10;;;;;;;8.63;4.30;;;;;;;;;;5011074;28;20208;-75
2022/05/27 03:44:36;;;;;;;6.40;5.03;;;;;;;;;;4989018;28;20250;-75
2022/05/27 03:47:02;;;;;;;5.50;4.23;;;;;;;;;;5008602;28;20274;-75
2022/05/27 03:49:27;;;;;;;7.70;4.53;;;;;;;;;;4986546;28;20191;-74
2022/05/27 03:52:02;;;;;;;5.47;4.90;;;;;;;;;;4988410;28;20187;-75
2022/05/27 03:54:27;;;;;;;5.80;5.10;;;;;;;;;;5009413;28;20195;-75
2022/05/27 03:56:53;;;;;;;5.87;5.10;;;;;;;;;;4987643;28;20245;-74
2022/05/27 03:59:19;;;;;;;5.67;4.37;;;;;;;;;;4987921;28;20179;-75
2022/05/27 04:01:46;;;;;;;8.47;4.93;;;;;;;;;;4999190;28;20200;-75
2022/05/27 04:04:13;;;;;;;6.30;4.60;;;;;;;;;;4998886;28;20180;-74
2022/05/27 04:06:38;;;;;;;4.87;4.40;;;;;;;;;;4986726;28;20180;-74
2022/05/27 04:09:04;;;;;;;6.20;4.87;;;;;;;;;;4986267;28;20254;-74
2022/05/27 04:11:29;;;;;;;5.83;4.53;;;;;;;;;;4984329;28;20209;-75
2022/05/27 04:13:55;;;;;;;4.73;4.20;;;;;;;;;;4994211;28;20228;-75
2022/05/27 04:16:20;;;;;;;6.93;5.57;;;;;;;;;;4985354;28;20175;-74
2022/05/27 04:18:45;;;;;;;5.93;4.67;;;;;;;;;;5003617;28;20183;-74
2022/05/27 04:21:10;;;;;;;14.37;5.10;;;;;;;;;;4989227;28;20178;-74
2022/05/27 04:23:36;;;;;;;8.77;4.97;;;;;;;;;;5003416;28;20191;-74
2022/05/27 04:26:01;;;;;;;5.47;4.83;;;;;;;;;;4998777;28;20237;-74
2022/05/27 04:28:26;;;;;;;6.40;4.37;;;;;;;;;;5023059;28;20185;-75
2022/05/27 04:30:51;;;;;;;6.27;4.73;;;;;;;;;;5023203;28;20206;-75
2022/05/27 04:33:17;;;;;;;4.63;4.03;;;;;;;;;;5019014;28;20273;-75
2022/05/27 04:35:42;;;;;;;5.30;4.70;;;;;;;;;;5025214;28;20203;-74
2022/05/27 04:38:08;;;;;;;4.33;3.93;;;;;;;;;;5009017;28;20463;-74
2022/05/27 04:40:34;;;;;;;4.27;3.87;;;;;;;;;;5004722;28;20220;-75
2022/05/27 04:43:01;;;;;;;8.40;5.30;;;;;;;;;;5023920;28;20178;-75
2022/05/27 04:45:27;;;;;;;5.07;4.13;;;;;;;;;;5010166;28;20185;-74
2022/05/27 04:47:52;;;;;;;5.27;4.50;;;;;;;;;;5021816;28;20293;-74
2022/05/27 04:50:18;;;;;;;7.00;4.60;;;;;;;;;;5001942;28;20179;-75
2022/05/27 04:52:45;;;;;;;5.77;4.43;;;;;;;;;;5005431;28;20198;-75
2022/05/27 04:55:12;;;;;;;7.27;4.80;;;;;;;;;;5017673;28;20207;-74
2022/05/27 04:57:42;;;;;;;6.43;4.50;;;;;;;;;;5037612;28;20182;-74
2022/05/27 05:00:12;;;;;;;5.13;4.40;;;;;;;;;;5004496;28;20196;-74
2022/05/27 05:02:38;;;;;;;6.30;4.60;;;;;;;;;;5010740;28;20201;-74
2022/05/27 05:05:03;;;;;;;6.37;4.23;;;;;;;;;;5012294;28;20187;-74
2022/05/27 05:07:29;;;;;;;7.10;4.73;;;;;;;;;;5020654;28;20181;-74
2022/05/27 05:09:54;;;;;;;5.57;5.07;;;;;;;;;;5022928;28;20219;-74
2022/05/27 05:12:22;;;;;;;4.93;4.33;;;;;;;;;;5005341;28;20216;-74
2022/05/27 05:14:48;;;;;;;5.13;4.30;;;;;;;;;;5010036;28;20222;-74
2022/05/27 05:17:14;;;;;;;5.20;4.20;;;;;;;;;;5004446;28;20191;-74
2022/05/27 05:19:39;;;;;;;6.20;4.53;;;;;;;;;;5025021;28;20186;-74
2022/05/27 05:22:04;;;;;;;5.10;4.60;;;;;;;;;;5000284;28;20179;-74
2022/05/27 05:24:29;;;;;;;6.77;4.27;;;;;;;;;;5005547;28;20182;-74
2022/05/27 05:26:54;;;;;;;9.73;5.10;;;;;;;;;;5011667;28;20242;-74
2022/05/27 05:29:19;;;;;;;4.57;3.80;;;;;;;;;;5005915;28;20184;-74
2022/05/27 05:31:45;;;;;;;6.20;4.63;;;;;;;;;;5010236;28;20195;-74
2022/05/27 05:34:10;;;;;;;5.50;4.70;;;;;;;;;;5022581;28;20285;-74
2022/05/27 05:36:35;;;;;;;6.67;4.20;;;;;;;;;;5020158;28;20185;-74
2022/05/27 05:39:01;;;;;;;6.03;4.80;;;;;;;;;;5023615;28;20182;-74
2022/05/27 05:41:30;;;;;;;5.73;4.57;;;;;;;;;;5019420;28;20191;-74
2022/05/27 05:43:56;;;;;;;5.27;4.77;;;;;;;;;;5004584;28;20183;-74
2022/05/27 05:46:22;;;;;;;7.30;4.50;;;;;;;;;;5000031;28;20524;-74
2022/05/27 05:48:47;;;;;;;5.10;4.20;;;;;;;;;;5001278;28;20194;-74
2022/05/27 05:51:12;;;;;;;4.13;3.73;;;;;;;;;;5002803;28;20217;-74
2022/05/27 05:53:38;;;;;;;6.80;4.80;;;;;;;;;;5023264;28;20180;-74
2022/05/27 05:56:03;;;;;;;8.60;5.00;;;;;;;;;;5004761;28;20209;-74
2022/05/27 05:58:28;;;;;;;5.70;4.27;;;;;;;;;;5000879;28;20189;-74
2022/05/27 06:00:53;;;;;;;7.17;4.97;;;;;;;;;;5028133;28;20194;-74
2022/05/27 06:03:19;;;;;;;6.00;5.13;;;;;;;;;;5015120;28;20359;-74
2022/05/27 06:05:44;;;;;;;4.97;4.50;;;;;;;;;;5005174;28;20229;-73
2022/05/27 06:08:10;;;;;;;5.73;5.17;;;;;;;;;;5003865;28;20185;-74
2022/05/27 06:10:36;;;;;;;5.63;4.20;;;;;;;;;;5010922;28;20229;-74
2022/05/27 06:13:01;;;;;;;5.40;4.73;;;;;;;;;;5033103;28;20278;-74
2022/05/27 06:15:26;;;;;;;4.87;4.47;;;;;;;;;;5029024;28;20256;-74
2022/05/27 06:17:51;;;;;;;5.13;4.63;;;;;;;;;;5011823;28;20186;-74
2022/05/27 06:20:16;;;;;;;7.43;4.63;;;;;;;;;;5008251;28;20194;-74
2022/05/27 06:22:42;;;;;;;4.93;4.37;;;;;;;;;;5003681;28;20195;-74
2022/05/27 06:25:08;;;;;;;5.30;4.80;;;;;;;;;;5010352;28;20244;-74
2022/05/27 06:27:33;;;;;;;10.33;6.33;;;;;;;;;;5005034;28;20190;-78
2022/05/27 06:35:26;;;;;;;10.37;5.43;;;;;;;;;;5026803;28;20201;-79
2022/05/27 06:37:52;;;;;;;6.03;5.20;;;;;;;;;;5015594;28;20261;-78
2022/05/27 06:40:17;;;;;;;6.77;4.77;;;;;;;;;;5005941;28;20209;-79
2022/05/27 06:42:43;;;;;;;4.60;4.03;;;;;;;;;;5004175;28;20178;-79
2022/05/27 06:45:10;;;;;;;5.60;4.90;;;;;;;;;;5007245;28;20208;-78
2022/05/27 06:47:36;;;;;;;4.67;4.13;;;;;;;;;;5026336;28;20178;-74
2022/05/27 06:50:01;;;;;;;8.93;8.03;;;;;;;;;;5019683;28;20202;-74
2022/05/27 06:52:27;;;;;;;5.30;4.80;;;;;;;;;;5071494;23;20245;-73
2022/05/27 06:54:52;;;;;;;9.00;6.23;;;;;;;;;;5010079;28;20297;-74
2022/05/27 06:57:18;;;;;;;5.90;5.30;;;;;;;;;;5013945;28;20171;-74
2022/05/27 06:59:43;;;;;;;5.67;5.07;;;;;;;;;;5008275;28;20246;-74
2022/05/27 07:02:09;;;;;;;5.93;5.33;;;;;;;;;;5036127;28;20201;-74
2022/05/27 07:04:37;;;;;;;6.23;4.40;;;;;;;;;;5026368;28;20189;-75
2022/05/27 07:07:06;;;;;;;6.77;5.17;;;;;;;;;;5011397;23;20238;-73
2022/05/27 07:09:35;;;;;;;6.13;4.83;;;;;;;;;;5006762;28;20182;-73
2022/05/27 07:12:01;;;;;;;6.23;4.97;;;;;;;;;;5010601;28;20415;-73
2022/05/27 07:14:27;;;;;;;6.73;5.33;;;;;;;;;;4989536;28;20272;-73
2022/05/27 07:16:52;;;;;;;11.53;7.47;;;;;;;;;;4985879;28;20248;-73
2022/05/27 07:19:19;;;;;;;7.20;4.93;;;;;;;;;;4990085;28;20215;-73
2022/05/27 07:21:45;;;;;;;6.47;5.20;;;;;;;;;;4996258;28;20182;-73
2022/05/27 07:24:13;;;;;;;6.67;4.50;;;;;;;;;;4988012;28;20201;-74
2022/05/27 07:26:39;;;;;;;4.87;4.47;;;;;;;;;;5014617;28;20190;-76
2022/05/27 07:29:04;;;;;;;6.60;4.90;;;;;;;;;;4987378;28;20188;-77
2022/05/27 07:31:30;;;;;;;5.93;4.93;;;;;;;;;;5008857;28;20195;-77
2022/05/27 07:33:56;;;;;;;5.90;5.30;;;;;;;;;;4992251;28;20302;-78
2022/05/27 07:36:21;;;;;;;5.77;5.30;;;;;;;;;;4993197;28;20281;-77
2022/05/27 07:38:47;;;;;;;5.30;4.73;;;;;;;;;;5021905;28;20195;-77
2022/05/27 07:41:13;;;;;;;5.73;5.13;;;;;;;;;;4989634;28;20182;-77
2022/05/27 07:43:38;;;;;;;7.20;5.47;;;;;;;;;;5001952;28;20239;-77
2022/05/27 07:46:04;;;;;;;5.90;5.40;;;;;;;;;;4990234;28;20186;-77
2022/05/27 07:48:29;;;;;;;5.07;4.57;;;;;;;;;;4988125;28;20229;-76
2022/05/27 07:50:54;;;;;;;6.17;5.37;;;;;;;;;;5000323;28;20257;-77
2022/05/27 07:53:19;;;;;;;5.77;5.17;;;;;;;;;;4989667;28;20185;-77
2022/05/27 07:55:45;;;;;;;7.10;4.83;;;;;;;;;;4990225;28;20219;-77
2022/05/27 07:58:10;;;;;;;5.57;5.07;;;;;;;;;;4989667;28;20175;-77
2022/05/27 08:00:37;;;;;;;6.43;4.60;;;;;;;;;;5013105;28;20591;-77
2022/05/27 08:03:03;;;;;;;6.17;4.47;;;;;;;;;;5015196;28;20240;-77
2022/05/27 08:05:29;;;;;;;5.10;4.33;;;;;;;;;;5017051;28;20238;-77
2022/05/27 08:07:55;;;;;;;6.10;5.40;;;;;;;;;;5012246;28;20276;-78
2022/05/27 08:10:22;;;;;;;5.00;4.60;;;;;;;;;;5023007;28;20208;-78
2022/05/27 08:12:47;;;;;;;5.20;4.70;;;;;;;;;;5012235;28;20190;-77
2022/05/27 08:15:13;;;;;;;8.30;4.50;;;;;;;;;;5029433;28;20197;-78
2022/05/27 08:17:39;;;;;;;6.53;5.53;;;;;;;;;;5024454;28;20187;-77
2022/05/27 08:20:05;;;;;;;5.70;5.30;;;;;;;;;;5007556;28;20187;-75
2022/05/27 08:22:31;;;;;;;4.83;3.63;;;;;;;;;;5023907;28;20171;-77
2022/05/27 08:24:56;;;;;;;5.87;5.03;;;;;;;;;;5003659;28;20189;-77
2022/05/27 08:27:21;;;;;;;6.77;4.93;;;;;;;;;;5024154;28;20276;-77
2022/05/27 08:29:47;;;;;;;4.77;4.27;;;;;;;;;;5008733;28;20864;-77
2022/05/27 08:32:12;;;;;;;5.53;4.60;;;;;;;;;;5013130;28;20181;-77
2022/05/27 08:40:14;;;;;;;7.60;4.57;;;;;;;;;;5020364;28;20188;-77
2022/05/27 08:43:06;;;;;;;4.80;4.40;;;;;;;;;;5024012;28;20726;-77
2022/05/27 08:45:35;;;;;;;4.83;4.37;;;;;;;;;;5008227;28;20278;-77
2022/05/27 08:48:03;;;;;;;4.73;4.30;;;;;;;;;;5023012;28;20313;-77
2022/05/27 08:50:35;;;;;;;8.23;7.43;;;;;;;;;;5027749;28;20273;-76
2022/05/27 08:53:05;;;;;;;6.60;6.10;;;;;;;;;;5010512;28;20182;-76
2022/05/27 09:01:23;;;;;;;5.33;3.83;;;;;;;;;;5025444;28;20217;-77
2022/05/27 09:03:55;;;;;;;4.37;3.43;;;;;;;;;;5021557;28;20172;-76
2022/05/27 09:06:24;;;;;;;4.10;3.73;;;;;;;;;;5018812;28;20238;-77
2022/05/27 09:08:50;;;;;;;4.23;3.10;;;;;;;;;;5011266;28;20206;-77
2022/05/27 09:11:27;;;;;;;3.83;3.53;;;;;;;;;;5009223;28;20206;-77
2022/05/27 09:14:00;;;;;;;5.17;2.93;;;;;;;;;;5027119;28;20270;-78
2022/05/27 09:16:32;;;;;;;3.23;3.00;;;;;;;;;;5001369;28;20200;-77
2022/05/27 09:19:02;;;;;;;3.07;2.80;;;;;;;;;;5009614;28;20187;-77
2022/05/27 09:21:33;;;;;;;3.17;2.97;;;;;;;;;;5002512;28;20200;-77
2022/05/27 09:24:16;;;;;;;5.00;3.07;;;;;;;;;;5018720;28;20180;-77
2022/05/27 09:26:58;;;;;;;3.07;2.77;;;;;;;;;;5038456;28;20204;-77
2022/05/27 09:29:30;;;;;;;3.03;2.73;;;;;;;;;;5012396;28;20177;-77
2022/05/27 09:32:03;;;;;;;4.60;3.20;;;;;;;;;;5024591;28;20180;-77
2022/05/27 09:34:30;;;;;;;2.57;2.37;;;;;;;;;;5008467;28;20276;-77
2022/05/27 09:36:58;;;;;;;3.33;3.03;;;;;;;;;;5023989;28;20208;-76
2022/05/27 09:39:24;;;;;;;3.60;2.93;;;;;;;;;;5038633;28;20191;-77
2022/05/27 09:42:11;;;;;;;5.27;2.47;;;;;;;;;;5010253;28;20175;-77
2022/05/27 09:44:42;;;;;;;3.00;2.70;;;;;;;;;;5000416;28;20185;-77
2022/05/27 09:47:07;;;;;;;2.20;2.10;;;;;;;;;;5003033;28;20223;-77
2022/05/27 09:49:32;;;;;;;2.53;2.03;;;;;;;;;;5024813;28;20182;-76
2022/05/27 09:51:58;;;;;;;3.57;2.73;;;;;;;;;;5025365;28;20245;-77
2022/05/27 09:54:30;;;;;;;2.70;2.50;;;;;;;;;;5025180;28;20209;-77
2022/05/27 09:57:23;;;;;;;2.43;2.27;;;;;;;;;;5008932;28;20193;-77
2022/05/27 10:00:11;;;;;;;2.80;2.60;;;;;;;;;;5021031;28;20218;-76
2022/05/27 10:02:37;;;;;;;3.60;2.57;;;;;;;;;;5018755;28;20177;-77
2022/05/27 10:05:05;;;;;;;2.80;2.60;;;;;;;;;;5188240;23;20245;-73
2022/05/27 10:07:33;;;;;;;2.63;2.43;;;;;;;;;;4973405;28;20176;-75
2022/05/27 10:10:35;;;;;;;2.73;2.53;;;;;;;;;;4973492;28;20279;-75
2022/05/27 10:13:18;;;;;;;2.80;2.37;;;;;;;;;;4931059;29;20216;-75
2022/05/27 10:15:44;;;;;;;2.23;2.03;;;;;;;;;;4946056;28;20231;-75
2022/05/27 10:18:27;;;;;;;3.53;2.03;;;;;;;;;;4930454;28;20185;-75
2022/05/27 10:21:01;;;;;;;2.30;2.10;;;;;;;;;;4945374;28;20203;-75
2022/05/27 10:23:28;;;;;;;2.73;2.33;;;;;;;;;;4949208;28;20224;-75
2022/05/27 10:25:53;;;;;;;2.30;2.10;;;;;;;;;;4952870;28;20193;-75
2022/05/27 10:28:25;;;;;;;2.00;1.80;;;;;;;;;;4931101;28;20276;-76
2022/05/27 10:30:52;;;;;;;3.30;2.23;;;;;;;;;;4963731;28;20220;-75
2022/05/27 10:33:17;;;;;;;2.43;2.20;;;;;;;;;;4949223;28;20201;-75
2022/05/27 10:35:43;;;;;;;2.17;2.00;;;;;;;;;;4958660;28;20213;-75
2022/05/27 10:38:26;;;;;;;1.93;1.83;;;;;;;;;;4930439;29;20174;-75
2022/05/27 10:41:16;;;;;;;3.53;2.63;;;;;;;;;;4958619;28;20195;-76
2022/05/27 10:43:54;;;;;;;5.43;2.17;;;;;;;;;;4930001;28;20176;-74
2022/05/27 10:46:21;;;;;;;2.40;2.20;;;;;;;;;;4939987;28;20190;-76
2022/05/27 10:48:53;;;;;;;3.83;2.77;;;;;;;;;;4979393;28;20268;-75
2022/05/27 10:51:36;;;;;;;3.37;3.07;;;;;;;;;;4970555;28;20183;-76
2022/05/27 10:54:21;;;;;;;2.43;2.23;;;;;;;;;;4976894;28;20241;-76
2022/05/27 11:02:04;;;;;;;4.77;2.50;;;;;;;;;;4971675;28;20195;-75
2022/05/27 11:02:26;;;;;;;2.83;2.30;;;;;;;;;;4972026;28;20204;-75
2022/05/27 11:05:17;;;;;;;2.20;2.00;;;;;;;;;;4946385;28;20241;-75
2022/05/27 11:08:01;;;;;;;2.63;2.43;;;;;;;;;;4935870;28;20317;-75
2022/05/27 11:10:29;;;;;;;2.70;2.47;;;;;;;;;;4953462;28;20234;-73
2022/05/27 11:16:13;;;;;;;2.43;2.13;;;;;;;;;;4952912;28;20295;-73
2022/05/27 11:18:43;;;;;;;2.73;2.20;;;;;;;;;;4951946;28;20179;-73
2022/05/27 11:21:32;;;;;;;2.90;2.30;;;;;;;;;;4953894;28;20178;-74
2022/05/27 11:24:01;;;;;;;2.83;2.50;;;;;;;;;;4927776;29;20236;-73
2022/05/27 11:26:47;;;;;;;4.17;2.87;;;;;;;;;;4956308;28;20179;-73
2022/05/27 11:29:31;;;;;;;2.70;2.50;;;;;;;;;;4951856;28;20176;-73
2022/05/27 11:32:08;;;;;;;2.73;2.30;;;;;;;;;;4936937;28;20332;-73
2022/05/27 11:34:42;;;;;;;2.40;2.20;;;;;;;;;;4935124;28;20212;-73
2022/05/27 11:37:25;;;;;;;2.73;2.50;;;;;;;;;;4939961;28;20284;-74
2022/05/27 11:40:03;;;;;;;2.33;2.13;;;;;;;;;;4952349;28;20206;-74
2022/05/27 11:42:47;;;;;;;2.60;2.40;;;;;;;;;;4932788;28;20185;-73
2022/05/27 11:45:17;;;;;;;3.43;2.47;;;;;;;;;;4936623;28;20282;-73
2022/05/27 11:47:43;;;;;;;2.23;2.13;;;;;;;;;;4955153;28;20233;-74
2022/05/27 11:50:22;;;;;;;2.40;2.20;;;;;;;;;;4956072;28;20203;-73
2022/05/27 11:53:08;;;;;;;2.83;2.10;;;;;;;;;;4932691;29;20186;-74
2022/05/27 11:55:46;;;;;;;4.30;2.27;;;;;;;;;;4934298;28;20309;-74
2022/05/27 11:58:14;;;;;;;2.50;2.30;;;;;;;;;;4944328;28;20187;-73
2022/05/27 12:00:42;;;;;;;2.80;2.40;;;;;;;;;;4937424;29;20209;-74
2022/05/27 12:03:18;;;;;;;2.37;2.17;;;;;;;;;;4932887;28;20225;-75
2022/05/27 12:05:54;;;;;;;2.57;2.37;;;;;;;;;;4953953;28;20258;-73
2022/05/27 12:08:26;;;;;;;2.80;2.00;;;;;;;;;;4957351;28;20210;-74
2022/05/27 12:10:58;;;;;;;2.53;2.10;;;;;;;;;;4953563;28;20178;-73
2022/05/27 12:13:32;;;;;;;2.40;2.20;;;;;;;;;;4970673;28;20199;-74
2022/05/27 12:16:17;;;;;;;2.70;2.50;;;;;;;;;;4954964;28;20222;-75
2022/05/27 12:18:45;;;;;;;3.40;2.70;;;;;;;;;;4952215;28;20241;-75
2022/05/27 12:21:12;;;;;;;3.60;2.83;;;;;;;;;;4946490;28;20192;-76
2022/05/27 12:23:38;;;;;;;2.87;2.67;;;;;;;;;;4988174;28;20183;-75
2022/05/27 12:26:04;;;;;;;3.17;2.87;;;;;;;;;;4955096;28;20252;-75
2022/05/27 12:28:33;;;;;;;3.00;2.80;;;;;;;;;;4948166;28;20209;-75
2022/05/27 12:31:00;;;;;;;3.60;2.70;;;;;;;;;;4952635;28;20190;-75
2022/05/27 12:33:26;;;;;;;3.20;2.90;;;;;;;;;;4960268;28;20222;-75
2022/05/27 12:36:21;;;;;;;2.80;2.60;;;;;;;;;;4957325;28;20211;-75
2022/05/27 12:38:47;;;;;;;3.23;2.93;;;;;;;;;;4953308;28;20210;-76
2022/05/27 12:41:17;;;;;;;2.30;2.10;;;;;;;;;;4949728;28;20187;-74
2022/05/27 12:43:55;;;;;;;2.50;2.27;;;;;;;;;;4956881;28;20187;-73
2022/05/27 12:46:27;;;;;;;2.60;2.40;;;;;;;;;;4956639;28;20182;-74
2022/05/27 12:48:55;;;;;;;3.03;2.30;;;;;;;;;;4967806;28;20214;-73
2022/05/27 12:51:20;;;;;;;2.73;2.50;;;;;;;;;;4982325;28;20190;-73
2022/05/27 12:53:47;;;;;;;4.17;2.27;;;;;;;;;;4982624;28;20185;-73
2022/05/27 13:02:13;;;;;;;2.73;1.80;;;;;;;;;;4964291;28;20220;-74
2022/05/27 13:04:43;;;;;;;3.43;2.00;;;;;;;;;;4962792;28;20241;-73
2022/05/27 13:07:09;;;;;;;3.00;2.10;;;;;;;;;;4962922;28;20282;-73
2022/05/27 13:09:34;;;;;;;2.20;2.00;;;;;;;;;;4942856;29;20270;-73
2022/05/27 13:12:00;;;;;;;2.43;2.20;;;;;;;;;;4964323;28;20220;-73
2022/05/27 13:14:38;;;;;;;2.50;2.30;;;;;;;;;;4968605;28;20211;-73
2022/05/27 13:17:05;;;;;;;2.63;2.40;;;;;;;;;;4954210;28;20216;-73
2022/05/27 13:19:48;;;;;;;2.43;2.30;;;;;;;;;;4967555;28;20178;-73
2022/05/27 13:22:14;;;;;;;3.30;2.33;;;;;;;;;;4949596;28;20189;-74
2022/05/27 13:24:41;;;;;;;2.43;2.30;;;;;;;;;;4965282;28;20259;-73
2022/05/27 13:27:18;;;;;;;4.63;2.60;;;;;;;;;;4953873;28;20595;-74
2022/05/27 13:29:43;;;;;;;2.50;2.30;;;;;;;;;;4958820;28;20175;-73
2022/05/27 13:32:08;;;;;;;4.20;2.50;;;;;;;;;;4948185;28;20216;-73
2022/05/27 13:34:54;;;;;;;3.63;2.67;;;;;;;;;;4943592;28;20200;-73
2022/05/27 13:37:28;;;;;;;3.63;2.70;;;;;;;;;;4951442;28;20204;-73
2022/05/27 13:39:55;;;;;;;3.20;2.90;;;;;;;;;;4963693;28;20180;-73
2022/05/27 13:42:32;;;;;;;3.67;3.37;;;;;;;;;;4934136;28;20185;-73
2022/05/27 13:44:59;;;;;;;2.90;2.70;;;;;;;;;;4948384;28;20188;-73
2022/05/27 13:47:26;;;;;;;3.40;3.10;;;;;;;;;;4949047;28;20201;-72
2022/05/27 13:49:51;;;;;;;3.33;2.70;;;;;;;;;;4953002;28;20219;-73
2022/05/27 13:52:20;;;;;;;3.13;2.77;;;;;;;;;;4953348;28;20218;-73
2022/05/27 13:54:46;;;;;;;3.47;2.50;;;;;;;;;;4952778;28;20216;-73
2022/05/27 13:57:14;;;;;;;5.07;2.53;;;;;;;;;;4931769;28;20188;-73
2022/05/27 13:59:52;;;;;;;2.90;2.60;;;;;;;;;;4964517;28;20181;-73
2022/05/27 14:02:23;;;;;;;2.70;2.50;;;;;;;;;;4953270;28;20289;-73
2022/05/27 14:04:56;;;;;;;2.60;2.40;;;;;;;;;;4970810;28;20270;-73
2022/05/27 14:07:35;;;;;;;3.77;2.87;;;;;;;;;;4981049;28;20245;-73
2022/05/27 14:10:03;;;;;;;3.13;2.83;;;;;;;;;;4950181;28;20195;-73
2022/05/27 14:12:32;;;;;;;3.13;2.83;;;;;;;;;;4976234;28;20189;-73
2022/05/27 14:15:00;;;;;;;3.77;3.30;;;;;;;;;;4947056;28;20274;-73
2022/05/27 14:17:25;;;;;;;2.80;2.60;;;;;;;;;;4978103;28;20192;-74
2022/05/27 14:20:01;;;;;;;2.60;2.40;;;;;;;;;;4958944;28;20184;-73
2022/05/27 14:22:43;;;;;;;3.20;2.33;;;;;;;;;;4955311;28;20193;-73
2022/05/27 14:25:11;;;;;;;2.23;2.03;;;;;;;;;;4993376;28;20188;-73
2022/05/27 14:27:42;;;;;;;2.73;2.17;;;;;;;;;;4985785;28;20194;-74
2022/05/27 14:30:13;;;;;;;2.20;2.00;;;;;;;;;;4969449;28;20271;-73
2022/05/27 14:32:39;;;;;;;3.67;2.40;;;;;;;;;;4958394;28;20242;-73
2022/05/27 14:35:05;;;;;;;2.10;2.00;;;;;;;;;;4958317;28;20198;-73
2022/05/27 14:37:35;;;;;;;2.13;1.93;;;;;;;;;;4974193;28;20178;-73
2022/05/27 14:40:03;;;;;;;2.20;1.97;;;;;;;;;;4965239;28;20184;-73
2022/05/27 14:42:28;;;;;;;3.20;2.10;;;;;;;;;;4989898;28;20171;-73
2022/05/27 14:44:53;;;;;;;2.07;1.97;;;;;;;;;;4993960;28;22669;-73
2022/05/27 14:47:29;;;;;;;1.90;1.70;;;;;;;;;;4971488;28;20192;-73
2022/05/27 14:49:56;;;;;;;2.37;2.17;;;;;;;;;;4958662;28;20184;-73
2022/05/27 14:52:24;;;;;;;2.60;2.40;;;;;;;;;;4975403;28;20179;-73
2022/05/27 14:54:52;;;;;;;2.93;2.30;;;;;;;;;;4970932;28;20208;-73
2022/05/27 14:57:20;;;;;;;2.30;2.13;;;;;;;;;;4976065;28;20193;-73
2022/05/27 15:00:04;;;;;;;2.63;2.43;;;;;;;;;;4962629;28;20184;-73
2022/05/27 15:02:31;;;;;;;2.77;2.40;;;;;;;;;;4956800;28;20179;-73
2022/05/27 15:05:02;;;;;;;2.77;2.57;;;;;;;;;;4952745;28;20240;-73
2022/05/27 15:07:47;;;;;;;3.47;3.17;;;;;;;;;;4959305;28;20179;-73
2022/05/27 15:10:27;;;;;;;3.70;3.40;;;;;;;;;;4954222;28;20176;-73
2022/05/27 15:12:54;;;;;;;3.10;1.97;;;;;;;;;;4972810;28;20182;-73
2022/05/27 15:15:45;;;;;;;2.87;2.53;;;;;;;;;;4961120;28;20213;-73
2022/05/27 15:18:13;;;;;;;4.13;3.23;;;;;;;;;;4967151;28;20224;-73
2022/05/27 15:20:42;;;;;;;2.80;2.40;;;;;;;;;;4952976;28;20272;-73
2022/05/27 15:23:08;;;;;;;2.23;2.13;;;;;;;;;;4958335;28;20185;-73
2022/05/27 15:25:36;;;;;;;2.53;2.33;;;;;;;;;;4960580;28;20259;-73
2022/05/27 15:33:44;;;;;;;2.30;2.10;;;;;;;;;;4974549;28;20191;-76
2022/05/27 15:36:10;;;;;;;2.77;2.57;;;;;;;;;;4969202;28;20219;-73
2022/05/27 15:38:35;;;;;;;2.70;2.40;;;;;;;;;;4965288;28;20193;-73